createdAt,value
2023-03-16T00:00:13.767Z,10.23
2023-03-16T00:02:41.579Z,8.32
2023-03-16T00:05:12.924Z,10.63
2023-03-16T00:07:40.304Z,8.65
2023-03-16T00:10:07.153Z,10.27
2023-03-16T00:12:34.968Z,10.82
2023-03-16T00:15:02.100Z,11.07
2023-03-16T00:17:28.848Z,10.68
2023-03-16T00:19:57.245Z,9.15
2023-03-16T00:22:29.010Z,9.23
2023-03-16T00:24:56.165Z,11.43
2023-03-16T00:27:24.262Z,10.07
2023-03-16T00:29:56.018Z,8.57
2023-03-16T00:32:27.230Z,8.57
2023-03-16T00:34:54.397Z,8.68
2023-03-16T00:37:23.496Z,11.88
2023-03-16T00:39:51.302Z,10.73
2023-03-16T00:42:19.187Z,10.43
2023-03-16T00:44:46.037Z,8.82
2023-03-16T00:47:16.060Z,10.23
2023-03-16T00:49:44.104Z,11.48
2023-03-16T00:52:15.571Z,8.50
2023-03-16T00:54:43.724Z,9.38
2023-03-16T00:57:12.138Z,8.77
2023-03-16T01:02:06.806Z,9.75
2023-03-16T01:04:34.258Z,8.85
2023-03-16T01:07:00.803Z,8.83
2023-03-16T01:09:27.450Z,10.40
2023-03-16T01:11:54.646Z,10.07
2023-03-16T01:14:22.173Z,9.02
2023-03-16T01:16:48.935Z,7.90
2023-03-16T01:19:15.749Z,9.02
2023-03-16T01:21:42.840Z,8.00
2023-03-16T01:24:09.972Z,12.98
2023-03-16T01:26:36.626Z,8.38
2023-03-16T01:29:03.222Z,9.57
2023-03-16T01:31:29.820Z,9.98
2023-03-16T01:33:56.402Z,8.80
2023-03-16T01:36:22.974Z,10.40
2023-03-16T01:38:49.811Z,9.35
2023-03-16T01:41:16.625Z,11.07
2023-03-16T01:43:43.648Z,7.25
2023-03-16T01:46:22.650Z,10.63
2023-03-16T01:49:12.458Z,9.02
2023-03-16T01:51:47.780Z,8.95
2023-03-16T01:54:18.070Z,9.20
2023-03-16T01:57:01.221Z,9.05
2023-03-16T01:59:43.492Z,9.48
2023-03-16T02:02:11.790Z,7.00
2023-03-16T02:07:10.159Z,8.52
2023-03-16T02:09:39.463Z,8.73
2023-03-16T02:12:06.999Z,12.68
2023-03-16T02:14:33.556Z,9.02
2023-03-16T02:17:00.142Z,10.77
2023-03-16T02:19:46.014Z,10.15
2023-03-16T02:22:14.092Z,8.60
2023-03-16T02:24:41.440Z,9.48
2023-03-16T02:27:14.363Z,8.77
2023-03-16T02:29:54.914Z,10.85
2023-03-16T02:32:23.663Z,8.45
2023-03-16T02:34:50.473Z,8.80
2023-03-16T02:37:17.088Z,6.32
2023-03-16T02:39:46.579Z,7.38
2023-03-16T02:42:16.076Z,9.13
2023-03-16T02:44:43.845Z,7.45
2023-03-16T02:47:23.374Z,7.95
2023-03-16T02:49:50.086Z,8.93
2023-03-16T02:52:16.658Z,8.30
2023-03-16T02:54:43.542Z,5.55
2023-03-16T02:57:10.153Z,9.65
2023-03-16T02:59:36.716Z,8.45
2023-03-16T03:02:03.452Z,6.57
2023-03-16T03:04:30.101Z,7.38
2023-03-16T03:07:01.841Z,9.00
2023-03-16T03:09:28.521Z,8.73
2023-03-16T03:11:55.147Z,6.07
2023-03-16T03:14:21.688Z,9.38
2023-03-16T03:16:48.235Z,7.80
2023-03-16T03:19:14.782Z,5.43
2023-03-16T03:21:41.407Z,7.50
2023-03-16T03:24:08.760Z,7.88
2023-03-16T03:26:35.527Z,7.70
2023-03-16T03:29:02.482Z,6.05
2023-03-16T03:31:29.123Z,7.10
2023-03-16T03:33:55.732Z,7.43
2023-03-16T03:36:22.327Z,8.20
2023-03-16T03:38:49.777Z,14.88
2023-03-16T03:41:16.330Z,11.40
2023-03-16T03:43:44.391Z,11.35
2023-03-16T03:46:11.076Z,5.97
2023-03-16T03:48:37.731Z,6.38
2023-03-16T03:51:05.576Z,10.38
2023-03-16T03:53:32.537Z,6.07
2023-03-16T03:55:59.132Z,7.55
2023-03-16T03:58:25.699Z,7.65
2023-03-16T04:00:52.555Z,6.22
2023-03-16T04:03:19.321Z,10.07
2023-03-16T04:05:45.979Z,6.57
2023-03-16T04:08:12.686Z,10.02
2023-03-16T04:10:39.334Z,8.43
2023-03-16T04:13:05.929Z,9.82
2023-03-16T04:15:34.092Z,5.65
2023-03-16T04:18:00.688Z,10.52
2023-03-16T04:20:27.625Z,8.93
2023-03-16T04:22:58.545Z,11.50
2023-03-16T04:25:26.820Z,5.38
2023-03-16T04:30:20.424Z,8.48
2023-03-16T04:32:47.058Z,13.65
2023-03-16T04:35:15.559Z,7.78
2023-03-16T04:37:42.106Z,10.45
2023-03-16T04:40:15.710Z,10.82
2023-03-16T04:42:43.789Z,7.13
2023-03-16T04:45:10.629Z,7.53
2023-03-16T04:47:37.815Z,8.90
2023-03-16T04:50:05.909Z,9.85
2023-03-16T04:52:32.587Z,5.50
2023-03-16T04:54:59.334Z,6.15
2023-03-16T04:57:25.887Z,6.25
2023-03-16T04:59:52.518Z,10.98
2023-03-16T05:02:20.102Z,8.60
2023-03-16T05:04:48.385Z,6.90
2023-03-16T05:07:14.965Z,8.07
2023-03-16T05:09:41.942Z,9.88
2023-03-16T05:12:09.066Z,6.97
2023-03-16T05:14:36.159Z,6.70
2023-03-16T05:17:06.168Z,10.43
2023-03-16T05:19:32.807Z,7.18
2023-03-16T05:21:59.503Z,9.57
2023-03-16T05:24:26.111Z,6.38
2023-03-16T05:26:52.713Z,6.72
2023-03-16T05:29:19.340Z,10.05
2023-03-16T05:31:47.743Z,12.30
2023-03-16T05:36:40.920Z,9.45
2023-03-16T05:39:08.696Z,6.15
2023-03-16T05:41:35.481Z,6.28
2023-03-16T05:44:02.350Z,6.35
2023-03-16T05:46:28.980Z,11.48
2023-03-16T05:48:55.585Z,8.02
2023-03-16T05:51:22.215Z,8.50
2023-03-16T05:53:49.357Z,6.95
2023-03-16T05:56:15.926Z,7.05
2023-03-16T05:58:42.507Z,7.78
2023-03-16T06:01:10.096Z,11.63
2023-03-16T06:03:36.797Z,8.07
2023-03-16T06:06:04.439Z,8.50
2023-03-16T06:08:31.025Z,8.45
2023-03-16T06:10:57.604Z,8.18
2023-03-16T06:13:24.165Z,9.95
2023-03-16T06:15:50.771Z,7.35
2023-03-16T06:18:17.350Z,9.35
2023-03-16T06:20:43.974Z,11.80
2023-03-16T06:23:10.504Z,5.60
2023-03-16T06:25:39.497Z,7.53
2023-03-16T06:28:07.885Z,7.32
2023-03-16T06:30:34.462Z,8.60
2023-03-16T06:33:02.182Z,6.70
2023-03-16T06:35:28.823Z,9.40
2023-03-16T06:37:55.368Z,8.75
2023-03-16T06:40:22.059Z,7.75
2023-03-16T06:42:48.653Z,8.27
2023-03-16T06:45:16.692Z,5.40
2023-03-16T06:47:44.347Z,7.45
2023-03-16T06:50:12.006Z,9.13
2023-03-16T06:52:38.761Z,6.60
2023-03-16T06:55:06.103Z,7.78
2023-03-16T06:57:32.662Z,6.63
2023-03-16T06:59:59.241Z,6.82
2023-03-16T07:02:25.847Z,11.30
2023-03-16T07:04:52.435Z,8.73
2023-03-16T07:07:19.375Z,8.70
2023-03-16T07:09:46.185Z,7.57
2023-03-16T07:12:13.798Z,7.50
2023-03-16T07:14:40.507Z,6.40
2023-03-16T07:17:07.168Z,8.23
2023-03-16T07:19:33.738Z,10.13
2023-03-16T07:22:00.307Z,8.82
2023-03-16T07:24:26.878Z,7.43
2023-03-16T07:26:53.480Z,8.05
2023-03-16T07:29:20.138Z,9.65
2023-03-16T07:31:48.018Z,8.77
2023-03-16T07:34:14.612Z,9.85
2023-03-16T07:36:41.151Z,8.10
2023-03-16T07:39:07.712Z,7.57
2023-03-16T07:41:34.306Z,6.88
2023-03-16T07:44:00.895Z,7.53
2023-03-16T07:46:27.479Z,6.20
2023-03-16T07:48:54.061Z,9.50
2023-03-16T07:51:21.418Z,8.80
2023-03-16T07:53:48.050Z,7.63
2023-03-16T07:56:14.630Z,8.05
2023-03-16T07:58:41.951Z,8.32
2023-03-16T08:01:10.912Z,8.77
2023-03-16T08:03:37.906Z,10.45
2023-03-16T08:06:07.716Z,5.40
2023-03-16T08:08:34.268Z,5.07
2023-03-16T08:11:00.968Z,7.13
2023-03-16T08:13:27.517Z,7.65
2023-03-16T08:15:58.600Z,12.30
2023-03-16T08:18:26.680Z,27.30
2023-03-16T08:20:53.784Z,26.63
2023-03-16T08:23:21.266Z,12.20
2023-03-16T08:25:48.206Z,12.60
2023-03-16T08:28:15.853Z,36.92
2023-03-16T08:30:51.039Z,12.80
2023-03-16T08:33:21.864Z,9.27
2023-03-16T08:35:49.764Z,4.97
2023-03-16T08:38:16.352Z,6.63
2023-03-16T08:40:48.431Z,11.35
2023-03-16T08:43:17.089Z,8.70
2023-03-16T08:45:47.463Z,6.00
2023-03-16T08:48:14.909Z,7.72
2023-03-16T08:50:43.335Z,6.25
2023-03-16T08:53:12.151Z,5.95
2023-03-16T08:55:40.766Z,6.30
2023-03-16T08:58:08.650Z,4.30
2023-03-16T09:00:35.563Z,5.43
2023-03-16T09:03:03.738Z,6.95
2023-03-16T09:05:31.198Z,3.58
2023-03-16T09:07:58.104Z,6.15
2023-03-16T09:10:25.823Z,7.72
2023-03-16T09:12:53.547Z,4.97
2023-03-16T09:15:21.203Z,5.27
2023-03-16T09:17:48.531Z,4.53
2023-03-16T09:20:26.869Z,2.78
2023-03-16T09:22:56.964Z,8.23
2023-03-16T09:25:25.450Z,4.38
2023-03-16T09:30:19.902Z,6.53
2023-03-16T09:32:48.874Z,6.45
2023-03-16T09:35:15.737Z,5.68
2023-03-16T09:37:45.414Z,4.72
2023-03-16T09:40:26.952Z,4.82
2023-03-16T09:43:07.231Z,3.72
2023-03-16T09:46:01.493Z,4.85
2023-03-16T09:48:29.662Z,3.58
2023-03-16T09:50:56.913Z,4.18
2023-03-16T09:53:34.323Z,3.80
2023-03-16T09:56:04.753Z,4.07
2023-03-16T09:58:34.484Z,5.53
2023-03-16T10:01:13.354Z,5.38
2023-03-16T10:04:21.968Z,4.18
2023-03-16T10:07:00.970Z,5.63
2023-03-16T10:09:31.973Z,3.42
2023-03-16T10:12:00.730Z,3.53
2023-03-16T10:14:39.435Z,6.03
2023-03-16T10:17:37.376Z,4.38
2023-03-16T10:20:09.102Z,3.25
2023-03-16T10:22:38.584Z,5.88
2023-03-16T10:25:15.899Z,4.30
2023-03-16T10:27:45.159Z,6.82
2023-03-16T10:30:28.579Z,4.85
2023-03-16T10:32:57.767Z,3.63
2023-03-16T10:35:51.595Z,5.95
2023-03-16T10:38:38.674Z,4.00
2023-03-16T10:41:20.587Z,5.43
2023-03-16T10:43:55.653Z,3.83
2023-03-16T10:46:23.314Z,17.90
2023-03-16T10:48:59.352Z,3.92
2023-03-16T10:51:29.574Z,6.13
2023-03-16T10:54:01.114Z,5.30
2023-03-16T10:56:34.030Z,3.88
2023-03-16T10:59:00.986Z,5.78
2023-03-16T11:01:29.166Z,4.82
2023-03-16T11:03:57.433Z,3.70
2023-03-16T11:06:30.617Z,3.83
2023-03-16T11:09:08.795Z,4.95
2023-03-16T11:11:36.576Z,4.10
2023-03-16T11:14:10.389Z,4.50
2023-03-16T11:16:41.627Z,7.60
2023-03-16T11:19:17.317Z,4.85
2023-03-16T11:22:02.852Z,3.65
2023-03-16T11:24:39.834Z,5.80
2023-03-16T11:27:13.112Z,3.67
2023-03-16T11:29:59.785Z,6.25
2023-03-16T11:32:30.732Z,5.35
2023-03-16T11:34:57.289Z,4.55
2023-03-16T11:37:32.616Z,4.70
2023-03-16T11:40:15.421Z,5.55
2023-03-16T11:42:49.898Z,6.32
2023-03-16T11:45:24.506Z,3.97
2023-03-16T11:47:57.172Z,4.43
2023-03-16T11:50:27.160Z,4.78
2023-03-16T11:53:07.129Z,3.97
2023-03-16T11:55:49.691Z,4.40
2023-03-16T11:58:53.681Z,5.03
2023-03-16T12:01:31.308Z,3.15
2023-03-16T12:04:27.355Z,5.72
2023-03-16T12:07:04.862Z,3.47
2023-03-16T12:09:51.509Z,4.32
2023-03-16T12:12:37.974Z,5.18
2023-03-16T12:15:20.150Z,3.13
2023-03-16T12:17:48.443Z,4.78
2023-03-16T12:20:39.488Z,3.60
2023-03-16T12:23:10.846Z,6.28
2023-03-16T12:25:39.590Z,4.32
2023-03-16T12:28:18.910Z,4.20
2023-03-16T12:31:03.758Z,3.83
2023-03-16T12:33:39.652Z,3.15
2023-03-16T12:36:24.989Z,4.15
2023-03-16T12:39:01.163Z,4.30
2023-03-16T12:41:37.281Z,3.15
2023-03-16T12:44:12.708Z,3.83
2023-03-16T12:46:53.438Z,4.00
2023-03-16T12:49:21.521Z,4.15
2023-03-16T12:51:59.616Z,3.38
2023-03-16T12:54:27.575Z,5.10
2023-03-16T12:57:05.100Z,5.07
2023-03-16T12:59:42.951Z,4.53
2023-03-16T13:02:33.014Z,4.68
2023-03-16T13:05:10.310Z,3.03
2023-03-16T13:07:38.951Z,6.30
2023-03-16T13:10:12.529Z,3.90
2023-03-16T13:12:41.749Z,3.50
2023-03-16T13:15:13.129Z,3.85
2023-03-16T13:17:39.769Z,5.55
2023-03-16T13:20:31.351Z,4.57
2023-03-16T13:23:21.020Z,4.03
2023-03-16T13:26:11.094Z,3.85
2023-03-16T13:28:38.941Z,3.72
2023-03-16T13:31:42.969Z,3.72
2023-03-16T13:34:14.949Z,4.07
2023-03-16T13:36:42.138Z,3.80
2023-03-16T13:39:18.881Z,3.95
2023-03-16T13:41:57.320Z,2.95
2023-03-16T13:46:51.024Z,2.58
2023-03-16T13:49:18.414Z,3.10
2023-03-16T13:51:46.934Z,5.95
2023-03-16T13:56:44.728Z,2.80
2023-03-16T13:59:11.757Z,4.65
2023-03-16T14:01:38.449Z,5.13
2023-03-16T14:04:13.512Z,3.35
2023-03-16T14:06:41.452Z,3.67
2023-03-16T14:09:15.698Z,8.18
2023-03-16T14:11:44.626Z,3.40
2023-03-16T14:14:23.948Z,6.80
2023-03-16T14:16:51.262Z,2.63
2023-03-16T14:19:24.574Z,4.85
2023-03-16T14:21:51.891Z,4.38
2023-03-16T14:24:33.850Z,2.80
2023-03-16T14:27:21.859Z,3.30
2023-03-16T14:29:59.871Z,3.38
2023-03-16T14:32:32.356Z,4.10
2023-03-16T14:35:21.225Z,4.10
2023-03-16T14:37:51.909Z,4.38
2023-03-16T14:40:24.376Z,3.42
2023-03-16T14:42:52.509Z,3.35
2023-03-16T14:45:20.376Z,5.60
2023-03-16T14:47:49.038Z,3.85
2023-03-16T14:50:18.911Z,2.70
2023-03-16T14:52:45.939Z,4.07
2023-03-16T14:55:17.841Z,3.15
2023-03-16T14:57:47.334Z,2.90
2023-03-16T15:00:15.569Z,3.85
2023-03-16T15:02:44.731Z,3.03
2023-03-16T15:05:21.171Z,3.53
2023-03-16T15:07:53.663Z,4.97
2023-03-16T15:10:26.858Z,3.67
2023-03-16T15:13:04.384Z,4.90
2023-03-16T15:15:31.685Z,8.95
2023-03-16T15:17:59.225Z,3.60
2023-03-16T15:20:31.682Z,2.92
2023-03-16T15:22:58.675Z,3.25
2023-03-16T15:25:37.268Z,2.45
2023-03-16T15:28:18.877Z,4.10
2023-03-16T15:30:50.218Z,3.05
2023-03-16T15:33:17.268Z,2.42
2023-03-16T15:35:44.785Z,3.15
2023-03-16T15:38:14.776Z,2.60
2023-03-16T15:40:42.571Z,4.55
2023-03-16T15:43:13.208Z,2.42
2023-03-16T15:45:39.821Z,3.13
2023-03-16T15:48:07.543Z,2.35
2023-03-16T15:50:34.985Z,3.10
2023-03-16T15:53:20.501Z,2.35
2023-03-16T15:56:05.588Z,3.40
2023-03-16T15:58:34.377Z,4.90
2023-03-16T16:01:02.860Z,3.22
2023-03-16T16:05:55.963Z,2.55
2023-03-16T16:08:22.900Z,3.45
2023-03-16T16:10:50.636Z,6.75
2023-03-16T16:13:26.709Z,2.13
2023-03-16T16:15:57.377Z,3.65
2023-03-16T16:18:35.058Z,2.17
2023-03-16T16:21:03.702Z,3.08
2023-03-16T16:23:32.398Z,2.45
2023-03-16T16:26:02.069Z,3.60
2023-03-16T16:28:31.428Z,3.10
2023-03-16T16:30:58.910Z,2.88
2023-03-16T16:33:30.449Z,5.22
2023-03-16T16:35:59.906Z,2.20
2023-03-16T16:38:26.866Z,2.90
2023-03-16T16:40:54.946Z,2.28
2023-03-16T16:43:31.381Z,3.30
2023-03-16T16:45:59.968Z,4.68
2023-03-16T16:48:38.278Z,2.45
2023-03-16T16:51:09.140Z,2.42
2023-03-16T16:53:35.921Z,2.72
2023-03-16T16:56:03.032Z,2.90
2023-03-16T16:58:29.662Z,2.17
2023-03-16T17:00:57.927Z,2.50
2023-03-16T17:03:27.443Z,3.03
2023-03-16T17:05:56.777Z,1.98
2023-03-16T17:08:24.576Z,2.55
2023-03-16T17:10:52.197Z,2.15
2023-03-16T17:13:46.933Z,1.90
2023-03-16T17:16:18.055Z,3.20
2023-03-16T17:18:45.294Z,2.88
2023-03-16T17:21:19.729Z,2.95
2023-03-16T17:23:47.977Z,4.20
2023-03-16T17:26:17.786Z,4.63
2023-03-16T17:29:04.050Z,2.80
2023-03-16T17:31:36.669Z,2.25
2023-03-16T17:34:09.437Z,2.20
2023-03-16T17:36:36.163Z,2.65
2023-03-16T17:39:03.297Z,3.78
2023-03-16T17:41:33.104Z,3.17
2023-03-16T17:44:02.905Z,2.35
2023-03-16T17:46:30.842Z,2.95
2023-03-16T17:48:57.464Z,3.45
2023-03-16T17:51:25.997Z,2.60
2023-03-16T17:56:25.398Z,3.22
2023-03-16T17:58:59.746Z,6.65
2023-03-16T18:01:29.992Z,2.97
2023-03-16T18:03:57.147Z,2.13
2023-03-16T18:06:26.163Z,2.20
2023-03-16T18:08:53.106Z,4.70
2023-03-16T18:11:21.637Z,2.85
2023-03-16T18:16:23.257Z,6.85
2023-03-16T18:18:50.086Z,3.22
2023-03-16T18:21:23.173Z,3.47
2023-03-16T18:23:50.591Z,4.20
2023-03-16T18:26:18.987Z,3.05
2023-03-16T18:28:46.113Z,2.28
2023-03-16T18:31:26.377Z,2.50
2023-03-16T18:33:59.566Z,4.78
2023-03-16T18:36:35.265Z,2.67
2023-03-16T18:39:05.740Z,5.15
2023-03-16T18:41:34.619Z,4.70
2023-03-16T18:44:06.068Z,5.03
2023-03-16T18:46:35.533Z,4.00
2023-03-16T18:49:16.382Z,2.88
2023-03-16T18:51:43.569Z,4.40
2023-03-16T18:54:21.008Z,3.50
2023-03-16T18:56:47.848Z,6.07
2023-03-16T18:59:14.519Z,4.28
2023-03-16T19:01:42.682Z,4.80
2023-03-16T19:04:19.788Z,6.72
2023-03-16T19:06:46.511Z,5.00
